sensor_id;sensor_type;location;lat;lon;timestamp;P1;durP1;ratioP1;P2;durP2;ratioP2
57339;SDS011;43174;50.930;18.170;2023-09-08T00:08:29;14.20;;;13.00;;
57339;SDS011;43174;50.930;18.170;2023-09-08T00:18:11;13.30;;;12.70;;
57339;SDS011;43174;50.930;18.170;2023-09-08T00:23:03;23.50;;;21.80;;
57339;SDS011;43174;50.930;18.170;2023-09-08T00:32:45;15.70;;;14.90;;
57339;SDS011;43174;50.930;18.170;2023-09-08T00:42:27;14.70;;;13.90;;
57339;SDS011;43174;50.930;18.170;2023-09-08T00:52:09;14.90;;;14.20;;
57339;SDS011;43174;50.930;18.170;2023-09-08T01:01:50;16.90;;;15.60;;
57339;SDS011;43174;50.930;18.170;2023-09-08T01:11:33;17.90;;;16.40;;
57339;SDS011;43174;50.930;18.170;2023-09-08T01:31:03;18.50;;;17.40;;
57339;SDS011;43174;50.930;18.170;2023-09-08T01:40:45;14.40;;;13.40;;
57339;SDS011;43174;50.930;18.170;2023-09-08T01:50:27;21.40;;;13.60;;
57339;SDS011;43174;50.930;18.170;2023-09-08T02:00:10;15.20;;;14.30;;
57339;SDS011;43174;50.930;18.170;2023-09-08T02:09:51;15.80;;;14.70;;
57339;SDS011;43174;50.930;18.170;2023-09-08T02:19:33;16.40;;;15.30;;
57339;SDS011;43174;50.930;18.170;2023-09-08T02:29:15;13.30;;;12.50;;
57339;SDS011;43174;50.930;18.170;2023-09-08T02:38:56;17.70;;;16.40;;
57339;SDS011;43174;50.930;18.170;2023-09-08T02:55:55;21.00;;;19.70;;
57339;SDS011;43174;50.930;18.170;2023-09-08T03:05:36;21.50;;;19.60;;
57339;SDS011;43174;50.930;18.170;2023-09-08T03:15:19;21.10;;;19.60;;
57339;SDS011;43174;50.930;18.170;2023-09-08T03:25:02;16.70;;;16.00;;
57339;SDS011;43174;50.930;18.170;2023-09-08T03:34:45;21.10;;;18.30;;
57339;SDS011;43174;50.930;18.170;2023-09-08T03:44:26;18.70;;;17.60;;
57339;SDS011;43174;50.930;18.170;2023-09-08T03:54:10;19.60;;;18.30;;
57339;SDS011;43174;50.930;18.170;2023-09-08T04:03:52;18.50;;;17.60;;
57339;SDS011;43174;50.930;18.170;2023-09-08T04:13:34;18.40;;;17.40;;
57339;SDS011;43174;50.930;18.170;2023-09-08T04:23:15;18.70;;;17.50;;
57339;SDS011;43174;50.930;18.170;2023-09-08T04:32:57;18.90;;;17.60;;
57339;SDS011;43174;50.930;18.170;2023-09-08T04:42:40;19.70;;;18.20;;
57339;SDS011;43174;50.930;18.170;2023-09-08T04:52:22;21.20;;;19.80;;
57339;SDS011;43174;50.930;18.170;2023-09-08T05:02:04;17.80;;;16.50;;
57339;SDS011;43174;50.930;18.170;2023-09-08T05:11:46;16.60;;;15.10;;
57339;SDS011;43174;50.930;18.170;2023-09-08T05:21:38;17.50;;;15.80;;
57339;SDS011;43174;50.930;18.170;2023-09-08T05:31:20;20.10;;;18.50;;
57339;SDS011;43174;50.930;18.170;2023-09-08T05:41:01;13.80;;;12.80;;
57339;SDS011;43174;50.930;18.170;2023-09-08T05:50:44;11.70;;;10.70;;
57339;SDS011;43174;50.930;18.170;2023-09-08T06:00:27;33.10;;;10.60;;
57339;SDS011;43174;50.930;18.170;2023-09-08T06:10:09;9.20;;;8.60;;
57339;SDS011;43174;50.930;18.170;2023-09-08T06:19:51;21.00;;;7.70;;
57339;SDS011;43174;50.930;18.170;2023-09-08T06:27:08;12.00;;;11.00;;
57339;SDS011;43174;50.930;18.170;2023-09-08T06:36:49;8.50;;;8.00;;
57339;SDS011;43174;50.930;18.170;2023-09-08T06:46:31;8.70;;;8.10;;
57339;SDS011;43174;50.930;18.170;2023-09-08T06:56:12;8.40;;;8.00;;
57339;SDS011;43174;50.930;18.170;2023-09-08T07:06:02;6.20;;;5.90;;
57339;SDS011;43174;50.930;18.170;2023-09-08T07:15:44;7.60;;;7.00;;
57339;SDS011;43174;50.930;18.170;2023-09-08T07:25:26;6.10;;;5.70;;
57339;SDS011;43174;50.930;18.170;2023-09-08T07:35:09;4.90;;;4.70;;
57339;SDS011;43174;50.930;18.170;2023-09-08T07:44:55;6.90;;;6.40;;
57339;SDS011;43174;50.930;18.170;2023-09-08T07:54:39;5.80;;;5.30;;
57339;SDS011;43174;50.930;18.170;2023-09-08T07:57:04;7.50;;;6.90;;
57339;SDS011;43174;50.930;18.170;2023-09-08T08:06:46;5.50;;;5.00;;
57339;SDS011;43174;50.930;18.170;2023-09-08T08:16:29;5.70;;;5.40;;
57339;SDS011;43174;50.930;18.170;2023-09-08T08:26:13;4.10;;;3.90;;
57339;SDS011;43174;50.930;18.170;2023-09-08T08:35:56;6.30;;;4.60;;
57339;SDS011;43174;50.930;18.170;2023-09-08T08:45:38;6.10;;;5.70;;
57339;SDS011;43174;50.930;18.170;2023-09-08T08:55:23;4.50;;;4.20;;
57339;SDS011;43174;50.930;18.170;2023-09-08T09:05:10;5.90;;;5.40;;
57339;SDS011;43174;50.930;18.170;2023-09-08T09:14:53;3.40;;;3.20;;
57339;SDS011;43174;50.930;18.170;2023-09-08T09:39:56;5.20;;;4.80;;
57339;SDS011;43174;50.930;18.170;2023-09-08T09:49:42;3.40;;;3.20;;
57339;SDS011;43174;50.930;18.170;2023-09-08T09:59:24;3.50;;;3.30;;
57339;SDS011;43174;50.930;18.170;2023-09-08T10:09:06;2.70;;;2.60;;
57339;SDS011;43174;50.930;18.170;2023-09-08T10:18:57;3.20;;;2.90;;
57339;SDS011;43174;50.930;18.170;2023-09-08T10:28:44;2.40;;;2.30;;
57339;SDS011;43174;50.930;18.170;2023-09-08T10:38:30;3.90;;;3.60;;
57339;SDS011;43174;50.930;18.170;2023-09-08T10:48:13;3.20;;;2.80;;
57339;SDS011;43174;50.930;18.170;2023-09-08T10:57:57;3.50;;;3.30;;
57339;SDS011;43174;50.930;18.170;2023-09-08T11:07:43;3.10;;;2.90;;
57339;SDS011;43174;50.930;18.170;2023-09-08T11:17:30;43.80;;;5.50;;
57339;SDS011;43174;50.930;18.170;2023-09-08T11:27:14;4.10;;;3.70;;
57339;SDS011;43174;50.930;18.170;2023-09-08T11:36:57;3.60;;;3.30;;
57339;SDS011;43174;50.930;18.170;2023-09-08T11:46:39;3.10;;;2.90;;
57339;SDS011;43174;50.930;18.170;2023-09-08T11:56:22;3.70;;;3.50;;
57339;SDS011;43174;50.930;18.170;2023-09-08T12:06:04;1.80;;;1.70;;
57339;SDS011;43174;50.930;18.170;2023-09-08T12:15:46;1.90;;;1.80;;
57339;SDS011;43174;50.930;18.170;2023-09-08T12:25:29;2.70;;;2.50;;
57339;SDS011;43174;50.930;18.170;2023-09-08T12:30:22;3.80;;;3.50;;
57339;SDS011;43174;50.930;18.170;2023-09-08T12:40:29;3.60;;;2.80;;
57339;SDS011;43174;50.930;18.170;2023-09-08T12:50:34;1.30;;;1.20;;
57339;SDS011;43174;50.930;18.170;2023-09-08T13:00:20;5.40;;;3.30;;
57339;SDS011;43174;50.930;18.170;2023-09-08T13:10:02;4.10;;;2.70;;
57339;SDS011;43174;50.930;18.170;2023-09-08T13:19:46;3.10;;;2.50;;
57339;SDS011;43174;50.930;18.170;2023-09-08T13:29:28;3.40;;;2.60;;
57339;SDS011;43174;50.930;18.170;2023-09-08T13:39:11;2.80;;;2.60;;
57339;SDS011;43174;50.930;18.170;2023-09-08T13:48:53;8.50;;;3.00;;
57339;SDS011;43174;50.930;18.170;2023-09-08T14:05:51;3.10;;;2.90;;
57339;SDS011;43174;50.930;18.170;2023-09-08T14:15:33;14.10;;;3.30;;
57339;SDS011;43174;50.930;18.170;2023-09-08T14:25:16;11.10;;;5.20;;
57339;SDS011;43174;50.930;18.170;2023-09-08T14:34:58;5.50;;;2.40;;
57339;SDS011;43174;50.930;18.170;2023-09-08T14:44:41;3.40;;;3.20;;
57339;SDS011;43174;50.930;18.170;2023-09-08T14:54:24;2.40;;;2.20;;
57339;SDS011;43174;50.930;18.170;2023-09-08T15:04:10;10.80;;;2.90;;
57339;SDS011;43174;50.930;18.170;2023-09-08T15:13:53;2.40;;;2.10;;
57339;SDS011;43174;50.930;18.170;2023-09-08T15:23:35;3.30;;;3.10;;
57339;SDS011;43174;50.930;18.170;2023-09-08T15:30:54;3.80;;;3.50;;
57339;SDS011;43174;50.930;18.170;2023-09-08T15:40:38;2.10;;;2.00;;
57339;SDS011;43174;50.930;18.170;2023-09-08T15:50:21;4.00;;;3.80;;
57339;SDS011;43174;50.930;18.170;2023-09-08T16:00:03;3.70;;;3.00;;
57339;SDS011;43174;50.930;18.170;2023-09-08T16:09:47;1.80;;;1.70;;
57339;SDS011;43174;50.930;18.170;2023-09-08T16:19:32;4.00;;;3.40;;
57339;SDS011;43174;50.930;18.170;2023-09-08T16:29:15;3.60;;;3.30;;
57339;SDS011;43174;50.930;18.170;2023-09-08T16:38:56;4.20;;;3.90;;
57339;SDS011;43174;50.930;18.170;2023-09-08T16:48:39;4.40;;;4.10;;
57339;SDS011;43174;50.930;18.170;2023-09-08T16:58:21;9.40;;;5.20;;
57339;SDS011;43174;50.930;18.170;2023-09-08T17:08:04;14.60;;;6.10;;
57339;SDS011;43174;50.930;18.170;2023-09-08T17:10:30;7.20;;;6.10;;
57339;SDS011;43174;50.930;18.170;2023-09-08T17:20:13;5.80;;;5.50;;
57339;SDS011;43174;50.930;18.170;2023-09-08T17:29:55;7.70;;;7.00;;
57339;SDS011;43174;50.930;18.170;2023-09-08T17:39:38;5.20;;;4.90;;
57339;SDS011;43174;50.930;18.170;2023-09-08T17:49:19;16.70;;;7.60;;
57339;SDS011;43174;50.930;18.170;2023-09-08T17:51:46;20.80;;;15.50;;
57339;SDS011;43174;50.930;18.170;2023-09-08T18:01:28;13.60;;;12.30;;
57339;SDS011;43174;50.930;18.170;2023-09-08T18:11:09;7.80;;;7.40;;
57339;SDS011;43174;50.930;18.170;2023-09-08T18:20:52;9.40;;;8.80;;
57339;SDS011;43174;50.930;18.170;2023-09-08T18:30:34;7.90;;;7.50;;
57339;SDS011;43174;50.930;18.170;2023-09-08T18:33:00;10.40;;;9.70;;
57339;SDS011;43174;50.930;18.170;2023-09-08T18:42:43;14.00;;;9.50;;
57339;SDS011;43174;50.930;18.170;2023-09-08T18:52:26;8.20;;;7.70;;
57339;SDS011;43174;50.930;18.170;2023-09-08T19:02:10;9.50;;;8.90;;
57339;SDS011;43174;50.930;18.170;2023-09-08T19:11:53;26.60;;;9.40;;
57339;SDS011;43174;50.930;18.170;2023-09-08T19:21:38;9.10;;;8.20;;
57339;SDS011;43174;50.930;18.170;2023-09-08T19:31:21;18.70;;;14.90;;
57339;SDS011;43174;50.930;18.170;2023-09-08T19:41:04;55.10;;;19.00;;
57339;SDS011;43174;50.930;18.170;2023-09-08T19:50:46;22.30;;;18.00;;
57339;SDS011;43174;50.930;18.170;2023-09-08T20:00:29;18.20;;;16.40;;
57339;SDS011;43174;50.930;18.170;2023-09-08T20:10:13;22.90;;;13.60;;
57339;SDS011;43174;50.930;18.170;2023-09-08T20:19:57;16.30;;;13.90;;
57339;SDS011;43174;50.930;18.170;2023-09-08T20:29:40;18.10;;;14.40;;
57339;SDS011;43174;50.930;18.170;2023-09-08T20:39:23;16.70;;;15.50;;
57339;SDS011;43174;50.930;18.170;2023-09-08T20:49:09;13.50;;;12.70;;
57339;SDS011;43174;50.930;18.170;2023-09-08T20:58:54;14.60;;;13.40;;
57339;SDS011;43174;50.930;18.170;2023-09-08T21:08:38;13.40;;;12.50;;
57339;SDS011;43174;50.930;18.170;2023-09-08T21:11:04;20.60;;;18.90;;
57339;SDS011;43174;50.930;18.170;2023-09-08T21:20:47;15.40;;;14.40;;
57339;SDS011;43174;50.930;18.170;2023-09-08T21:30:30;17.10;;;12.00;;
57339;SDS011;43174;50.930;18.170;2023-09-08T21:35:21;21.20;;;19.20;;
57339;SDS011;43174;50.930;18.170;2023-09-08T21:45:03;12.80;;;11.90;;
57339;SDS011;43174;50.930;18.170;2023-09-08T21:54:46;15.20;;;14.00;;
57339;SDS011;43174;50.930;18.170;2023-09-08T22:04:28;12.40;;;11.70;;
57339;SDS011;43174;50.930;18.170;2023-09-08T22:14:09;14.00;;;13.00;;
57339;SDS011;43174;50.930;18.170;2023-09-08T22:23:54;15.30;;;14.30;;
57339;SDS011;43174;50.930;18.170;2023-09-08T22:33:37;14.50;;;13.00;;
57339;SDS011;43174;50.930;18.170;2023-09-08T22:43:19;16.50;;;15.20;;
57339;SDS011;43174;50.930;18.170;2023-09-08T22:53:01;17.20;;;15.60;;
57339;SDS011;43174;50.930;18.170;2023-09-08T23:02:43;13.40;;;12.60;;
57339;SDS011;43174;50.930;18.170;2023-09-08T23:12:28;13.40;;;12.40;;
57339;SDS011;43174;50.930;18.170;2023-09-08T23:22:10;26.10;;;13.20;;
57339;SDS011;43174;50.930;18.170;2023-09-08T23:31:52;13.30;;;12.70;;
57339;SDS011;43174;50.930;18.170;2023-09-08T23:41:38;13.70;;;12.80;;
57339;SDS011;43174;50.930;18.170;2023-09-08T23:51:20;13.60;;;12.90;;
